aviador You're here:

PAMK Decoded Metar

ST MICHAEL in AK, USA
Report Time2017-10-23 04:56:00
UTC Time2017-10-23 05:54:40
Flight Rules vfr VFR
Wind100° at 10 kt
W.Decomp.*RWY 02: 4.5 kt HW 8.9 kt RCW
W.Rank100° ranks 12
Current wind is above 100° avg. (9.6)
Visibility9999 m
Phenomena:N/A
Clouds:N/A
Expected CloudBase > 1,600 ft AGL from Temp-Dew spread
CeilingNone
Temp-8°C (ISA -23)
Dew Point-12°C (73% RH)
AAT-14.8°C
QNH1002 hPa
Density Alt-2,333 ft
Elevation92 ft
Report Wrong Elevation
Raw Report
PAMK 230456Z AUTO 10010KT 10SM CLR M08/M12 A2958 RMK AO2 SLP020
T10781117 FZRANO $=

Extra information for PAMK:More info

Metar Taf Metar & Taf Last 4 Metars F.Rules Stats Wind Profile Meteogram Temp Stats Airport Information Weather charts Add Link Nearby VenuesMetar ALERT Operation Metar Decoded Social comments

AIRNAV info for PAMK